Time;durP1;ratioP1;P1;durP2;ratioP2;P2;SDS_P1;SDS_P2;PMS_P1;PMS_P2;Temp;Humidity;BMP_temperature;BMP_pressure;BME280_temperature;BME280_humidity;BME280_pressure;Samples;Min_cycle;Max_cycle;Signal;HPM_P1;HPM_P2
2023/02/17 00:01:29;;;;;;;30.70;14.60;;;;;;;16.27;30.93;100106.20;108300;1255;60341;-65
2023/02/17 00:03:57;;;;;;;32.60;15.70;;;;;;;15.72;31.76;100106.13;108200;1254;74070;-65
2023/02/17 00:06:27;;;;;;;41.70;17.80;;;;;;;16.04;31.45;100102.50;108194;1256;70685;-65
2023/02/17 00:08:59;;;;;;;37.90;17.80;;;;;;;16.39;30.98;100093.42;108131;1254;73906;-64
2023/02/17 00:11:28;;;;;;;28.30;15.20;;;;;;;15.87;31.67;100097.83;108255;1253;62105;-66
2023/02/17 00:13:57;;;;;;;38.30;16.80;;;;;;;16.02;31.39;100093.79;108223;1257;61522;-67
2023/02/17 00:16:26;;;;;;;38.50;17.90;;;;;;;15.96;31.55;100096.42;108204;1254;74142;-66
2023/02/17 00:18:58;;;;;;;30.90;15.60;;;;;;;16.41;31.05;100091.74;108165;1254;70337;-66
2023/02/17 00:21:28;;;;;;;42.40;16.90;;;;;;;17.17;30.09;100085.40;108152;1256;72576;-65
2023/02/17 00:23:57;;;;;;;25.70;13.70;;;;;;;17.56;29.63;100090.43;108241;1255;62207;-65
2023/02/17 00:26:25;;;;;;;38.30;16.30;;;;;;;17.72;29.29;100089.72;108179;1255;60547;-66
2023/02/17 00:28:53;;;;;;;33.20;16.20;;;;;;;16.99;30.04;100089.89;108114;1255;73236;-65
2023/02/17 00:31:23;;;;;;;35.50;15.90;;;;;;;16.50;30.68;100093.29;108119;1253;69765;-64
2023/02/17 00:33:55;;;;;;;35.90;16.00;;;;;;;16.68;30.66;100090.95;108010;1260;72698;-66
2023/02/17 00:36:24;;;;;;;32.20;15.80;;;;;;;16.89;30.33;100087.17;108077;1254;61526;-65
2023/02/17 00:38:53;;;;;;;31.60;16.00;;;;;;;16.73;30.52;100080.38;107935;1256;61059;-65
2023/02/17 00:41:22;;;;;;;36.90;17.10;;;;;;;16.52;30.91;100078.61;107910;1260;74890;-66
2023/02/17 00:43:51;;;;;;;27.50;12.80;;;;;;;16.49;30.98;100075.11;107990;1259;70633;-65
2023/02/17 00:46:19;;;;;;;32.00;15.10;;;;;;;16.55;30.91;100071.73;107997;1259;73690;-65
2023/02/17 00:48:47;;;;;;;45.50;18.30;;;;;;;16.49;30.86;100061.27;107961;1257;62204;-66
2023/02/17 00:51:17;;;;;;;32.60;14.40;;;;;;;16.67;30.72;100054.86;108025;1257;60525;-64
2023/02/17 00:53:45;;;;;;;30.70;14.30;;;;;;;16.79;30.38;100053.21;107863;1260;72865;-65
2023/02/17 00:56:13;;;;;;;36.70;17.10;;;;;;;17.26;30.03;100051.45;108002;1258;70149;-66
2023/02/17 00:58:41;;;;;;;35.90;16.90;;;;;;;17.08;30.03;100052.21;107948;1255;73639;-66
2023/02/17 01:01:10;;;;;;;32.70;16.20;;;;;;;17.07;30.18;100049.34;108124;1254;61996;-63
2023/02/17 01:03:40;;;;;;;36.70;16.60;;;;;;;17.18;30.07;100048.39;108097;1259;61271;-64
2023/02/17 01:06:15;;;;;;;31.60;16.10;;;;;;;16.63;30.70;100050.88;108045;1259;75069;-65
2023/02/17 01:08:43;;;;;;;34.90;17.40;;;;;;;16.86;30.42;100046.23;108046;1259;70540;-64
2023/02/17 01:11:18;;;;;;;39.60;17.70;;;;;;;16.94;30.43;100041.11;108048;1254;73859;-67
2023/02/17 01:13:46;;;;;;;39.50;18.50;;;;;;;17.26;29.89;100041.32;108154;1254;60644;-64
2023/02/17 01:16:18;;;;;;;33.50;16.80;;;;;;;17.17;30.10;100038.70;108153;1254;61335;-66
2023/02/17 01:18:47;;;;;;;35.90;17.60;;;;;;;17.07;30.17;100035.96;108033;1254;75095;-65
2023/02/17 01:21:19;;;;;;;35.80;16.10;;;;;;;17.23;29.97;100026.62;108132;1254;69422;-66
2023/02/17 01:23:48;;;;;;;30.10;15.80;;;;;;;17.25;30.05;100025.41;107998;1260;73066;-65
2023/02/17 01:26:18;;;;;;;35.60;16.70;;;;;;;17.31;29.80;100024.65;108068;1260;61224;-65
2023/02/17 01:28:47;;;;;;;30.00;15.70;;;;;;;17.29;29.73;100024.05;108153;1254;61325;-65
2023/02/17 01:31:15;;;;;;;31.50;15.50;;;;;;;17.32;29.78;100024.45;107981;1254;73578;-65
2023/02/17 01:33:48;;;;;;;34.30;16.80;;;;;;;17.41;29.59;100019.36;108132;1255;68737;-66
2023/02/17 01:36:17;;;;;;;27.90;15.10;;;;;;;17.21;29.68;100013.96;108020;1254;73009;-64
2023/02/17 01:38:47;;;;;;;36.10;15.40;;;;;;;17.06;29.91;100015.45;108181;1257;62082;-64
2023/02/17 01:41:19;;;;;;;30.10;14.70;;;;;;;17.25;29.72;100015.83;108185;1253;61524;-63
2023/02/17 01:44:03;;;;;;;35.10;17.00;;;;;;;17.43;29.53;100021.70;108192;1254;75037;-65
2023/02/17 01:46:44;;;;;;;31.80;15.00;;;;;;;17.56;29.38;100018.53;108064;1255;71813;-65
2023/02/17 01:49:33;;;;;;;34.60;15.70;;;;;;;17.26;29.70;100013.30;108281;1257;73717;-65
2023/02/17 01:52:07;;;;;;;28.60;14.60;;;;;;;16.91;30.06;100014.13;108263;1254;61483;-64
2023/02/17 01:54:45;;;;;;;34.80;15.10;;;;;;;17.03;30.00;100015.67;108153;1254;61425;-65
2023/02/17 01:57:15;;;;;;;33.50;16.50;;;;;;;17.16;29.91;100013.80;108198;1254;74550;-65
2023/02/17 01:59:43;;;;;;;37.80;16.50;;;;;;;17.39;29.69;100016.65;108050;1254;71389;-66
2023/02/17 02:02:12;;;;;;;34.30;16.20;;;;;;;17.71;29.27;100016.26;108098;1254;73878;-65
2023/02/17 02:04:42;;;;;;;38.60;16.50;;;;;;;17.58;29.49;100017.88;107859;1254;62412;-66
2023/02/17 02:07:13;;;;;;;37.30;17.50;;;;;;;17.72;29.31;100012.63;108104;1253;61534;-66
2023/02/17 02:09:48;;;;;;;30.60;16.10;;;;;;;17.87;29.15;100010.95;108134;1254;75193;-65
2023/02/17 02:12:36;;;;;;;27.20;14.80;;;;;;;17.87;28.94;100012.17;108241;1255;70356;-66
2023/02/17 02:15:11;;;;;;;27.80;14.30;;;;;;;18.15;28.62;100014.66;108237;1255;72598;-66
2023/02/17 02:18:06;;;;;;;27.90;14.50;;;;;;;17.93;28.80;100018.52;108165;1253;60415;-66
2023/02/17 02:20:54;;;;;;;36.10;15.40;;;;;;;17.63;29.15;100020.53;108197;1255;61216;-65
2023/02/17 02:24:00;;;;;;;33.90;15.90;;;;;;;17.40;29.46;100024.23;108049;1254;74556;-65
2023/02/17 02:26:56;;;;;;;38.20;17.10;;;;;;;17.52;29.38;100019.51;108178;1254;70252;-66
2023/02/17 02:29:53;;;;;;;34.00;16.40;;;;;;;17.20;29.66;100022.54;108134;1254;73713;-67
2023/02/17 02:32:40;;;;;;;35.40;16.80;;;;;;;17.35;29.66;100016.01;108376;1254;61129;-66
2023/02/17 02:35:20;;;;;;;30.50;14.20;;;;;;;17.76;29.23;100017.52;108241;1254;60860;-65
2023/02/17 02:38:10;;;;;;;48.80;22.80;;;;;;;17.89;28.94;100015.42;108107;1253;74806;-66
2023/02/17 02:40:44;;;;;;;47.80;20.40;;;;;;;18.01;28.72;100014.94;108083;1254;70422;-64
2023/02/17 02:43:13;;;;;;;42.80;19.60;;;;;;;17.72;29.01;100016.91;108221;1254;73695;-64
2023/02/17 02:45:42;;;;;;;42.20;20.20;;;;;;;17.42;29.41;100014.49;108144;1253;62062;-64
2023/02/17 02:48:10;;;;;;;45.10;21.90;;;;;;;17.22;29.67;100018.33;108238;1254;61352;-65
2023/02/17 02:51:00;;;;;;;48.90;21.30;;;;;;;17.48;29.51;100019.66;108229;1254;75111;-64
2023/02/17 02:56:31;;;;;;;49.80;21.60;;;;;;;13.49;35.48;100030.36;104890;1291;601256;-66
2023/02/17 02:59:22;;;;;;;47.80;21.50;;;;;;;15.73;31.91;100021.80;107273;1269;61388;-65
2023/02/17 03:01:58;;;;;;;63.00;25.60;;;;;;;15.81;31.78;100027.94;107226;1266;61124;-64
2023/02/17 03:04:35;;;;;;;55.80;24.40;;;;;;;16.19;31.37;100028.97;107288;1267;72297;-66
2023/02/17 03:07:21;;;;;;;50.00;23.70;;;;;;;15.95;31.76;100028.31;107211;1267;69478;-66
2023/02/17 03:09:51;;;;;;;57.70;23.00;;;;;;;15.77;32.00;100031.31;107201;1264;151178;-65
2023/02/17 03:12:20;;;;;;;54.20;24.40;;;;;;;15.70;32.19;100028.19;107425;1268;61636;-65
2023/02/17 03:14:49;;;;;;;57.10;25.70;;;;;;;16.05;31.77;100019.75;107376;1267;59848;-65
2023/02/17 03:17:20;;;;;;;60.20;23.70;;;;;;;16.00;31.79;100018.30;107513;1261;72100;-66
2023/02/17 03:19:50;;;;;;;47.30;21.60;;;;;;;16.69;31.03;100013.91;107551;1263;71099;-65
2023/02/17 03:22:23;;;;;;;48.70;20.20;;;;;;;17.06;30.53;100016.77;107511;1265;72673;-65
2023/02/17 03:24:51;;;;;;;46.30;21.30;;;;;;;16.95;30.57;100009.24;107559;1261;62444;-65
2023/02/17 03:27:19;;;;;;;47.30;21.20;;;;;;;17.07;30.43;100013.25;107513;1262;61120;-66
2023/02/17 03:29:48;;;;;;;46.50;21.20;;;;;;;16.66;30.85;100021.42;107490;1261;73720;-65
2023/02/17 03:32:17;;;;;;;41.00;18.80;;;;;;;16.75;30.85;100024.22;107518;1264;70251;-65
2023/02/17 03:34:45;;;;;;;41.50;20.10;;;;;;;16.71;30.79;100026.57;107791;1257;71764;-67
2023/02/17 03:37:13;;;;;;;43.00;21.00;;;;;;;16.56;31.11;100031.27;107860;1256;62088;-64
2023/02/17 03:39:41;;;;;;;50.30;20.30;;;;;;;16.56;31.05;100031.98;107898;1257;59849;-66
2023/02/17 03:42:09;;;;;;;40.80;19.40;;;;;;;16.60;31.04;100036.16;107917;1258;72779;-67
2023/02/17 03:44:38;;;;;;;48.00;20.50;;;;;;;16.44;31.11;100032.77;107935;1258;71630;-65
2023/02/17 03:47:07;;;;;;;40.80;18.50;;;;;;;16.59;30.94;100035.49;107888;1260;73850;-66
2023/02/17 03:49:35;;;;;;;47.10;20.70;;;;;;;16.36;31.28;100030.77;107773;1257;61915;-65
2023/02/17 03:52:04;;;;;;;41.00;19.20;;;;;;;16.15;31.55;100030.66;107906;1257;61110;-65
2023/02/17 03:54:32;;;;;;;36.40;19.40;;;;;;;16.34;31.35;100027.19;107963;1258;74283;-65
2023/02/17 03:57:01;;;;;;;42.10;19.90;;;;;;;16.97;30.60;100022.79;107977;1260;71290;-65
2023/02/17 03:59:30;;;;;;;41.10;18.30;;;;;;;17.17;30.31;100024.17;107895;1260;73739;-66
2023/02/17 04:02:00;;;;;;;42.90;19.30;;;;;;;17.15;30.21;100024.64;107946;1262;62520;-65
2023/02/17 04:04:28;;;;;;;37.30;18.30;;;;;;;17.35;29.96;100027.23;107918;1257;59640;-66
2023/02/17 04:06:57;;;;;;;39.50;19.60;;;;;;;17.21;30.13;100033.16;107832;1257;74230;-67
2023/02/17 04:09:31;;;;;;;39.60;20.10;;;;;;;17.43;29.88;100032.34;107812;1262;71893;-64
2023/02/17 04:11:59;;;;;;;43.30;19.20;;;;;;;17.63;29.74;100032.63;107890;1261;73046;-67
2023/02/17 04:14:28;;;;;;;42.00;19.80;;;;;;;17.66;29.74;100035.62;107899;1262;60857;-65
2023/02/17 04:16:58;;;;;;;46.10;21.50;;;;;;;17.58;29.73;100031.55;107903;1257;59894;-65
2023/02/17 04:19:26;;;;;;;42.80;19.40;;;;;;;17.47;30.00;100035.82;107974;1262;74299;-66
2023/02/17 04:21:56;;;;;;;42.00;20.50;;;;;;;17.52;29.80;100035.63;107760;1257;70611;-67
2023/02/17 04:24:25;;;;;;;48.90;21.40;;;;;;;17.39;30.01;100036.90;107927;1257;74046;-66
2023/02/17 04:26:57;;;;;;;47.70;20.60;;;;;;;17.40;29.97;100033.99;107835;1257;62038;-65
2023/02/17 04:29:25;;;;;;;47.90;22.30;;;;;;;17.28;30.08;100028.04;107978;1257;59982;-65
2023/02/17 04:31:53;;;;;;;46.90;22.10;;;;;;;17.11;30.26;100026.17;107928;1257;73980;-66
2023/02/17 04:34:21;;;;;;;42.20;21.40;;;;;;;17.01;30.42;100024.67;107940;1260;70499;-65
2023/02/17 04:36:49;;;;;;;47.40;21.00;;;;;;;16.92;30.66;100030.92;107923;1257;73430;-65
2023/02/17 04:39:17;;;;;;;43.80;20.10;;;;;;;16.81;30.71;100035.02;107827;1257;62191;-66
2023/02/17 04:41:46;;;;;;;45.50;21.10;;;;;;;16.88;30.65;100038.27;108028;1256;61483;-64
2023/02/17 04:44:14;;;;;;;45.70;21.00;;;;;;;17.01;30.47;100038.33;108013;1259;74357;-65
2023/02/17 04:46:42;;;;;;;54.50;21.50;;;;;;;16.98;30.52;100041.88;107932;1257;71633;-67
2023/02/17 04:49:11;;;;;;;53.40;22.30;;;;;;;17.08;30.36;100042.49;107961;1260;73774;-66
2023/02/17 04:51:39;;;;;;;44.90;20.20;;;;;;;17.14;30.39;100047.05;107910;1256;62089;-67
2023/02/17 04:54:07;;;;;;;47.40;21.60;;;;;;;17.21;30.27;100051.03;107931;1257;61426;-66
2023/02/17 04:56:37;;;;;;;53.40;22.90;;;;;;;17.06;30.45;100054.13;108034;1257;73071;-66
2023/02/17 04:59:06;;;;;;;51.50;22.30;;;;;;;16.67;30.86;100055.36;108058;1257;68723;-66
2023/02/17 05:01:34;;;;;;;51.70;23.50;;;;;;;16.23;31.50;100059.92;108024;1260;72950;-66
2023/02/17 05:04:07;;;;;;;51.30;22.80;;;;;;;16.44;31.27;100058.80;107911;1260;62078;-66
2023/02/17 05:06:36;;;;;;;46.70;22.90;;;;;;;16.32;31.45;100058.12;108030;1260;60142;-66
2023/02/17 05:09:05;;;;;;;39.80;19.50;;;;;;;16.35;31.34;100058.28;107921;1258;74147;-67
2023/02/17 05:11:34;;;;;;;38.10;18.30;;;;;;;16.51;31.12;100060.43;107982;1257;70651;-66
2023/02/17 05:14:03;;;;;;;38.00;18.60;;;;;;;16.62;30.93;100065.63;108002;1257;72575;-67
2023/02/17 05:16:31;;;;;;;39.10;17.00;;;;;;;16.59;31.01;100071.27;107946;1257;62420;-66
2023/02/17 05:18:59;;;;;;;36.80;16.90;;;;;;;16.71;30.85;100071.47;107918;1258;59706;-66
2023/02/17 05:21:28;;;;;;;41.20;19.40;;;;;;;16.49;31.07;100075.67;107977;1257;72128;-65
2023/02/17 05:23:56;;;;;;;40.00;18.50;;;;;;;16.34;31.35;100075.34;107969;1260;71508;-67
2023/02/17 05:26:25;;;;;;;37.40;17.40;;;;;;;16.38;31.27;100074.72;107944;1258;72940;-66
2023/02/17 05:28:55;;;;;;;45.50;19.80;;;;;;;16.74;30.88;100073.22;108068;1258;61676;-66
2023/02/17 05:31:24;;;;;;;41.70;18.70;;;;;;;16.96;30.53;100074.33;108003;1257;59635;-64
2023/02/17 05:33:53;;;;;;;44.10;20.70;;;;;;;16.85;30.63;100079.95;107984;1257;74097;-66
2023/02/17 05:36:21;;;;;;;38.30;17.40;;;;;;;16.61;30.96;100080.96;108020;1257;69907;-66
2023/02/17 05:38:50;;;;;;;35.70;17.00;;;;;;;16.68;30.93;100084.60;107979;1257;72473;-66
2023/02/17 05:41:19;;;;;;;38.90;19.30;;;;;;;16.75;30.72;100083.42;107979;1257;61241;-67
2023/02/17 05:43:48;;;;;;;44.70;21.30;;;;;;;16.75;30.83;100088.94;108039;1256;61239;-66
2023/02/17 05:46:16;;;;;;;40.90;19.60;;;;;;;16.81;30.78;100084.98;108002;1257;72517;-66
2023/02/17 05:48:44;;;;;;;42.60;20.70;;;;;;;16.65;30.96;100089.89;107960;1257;71260;-65
2023/02/17 05:51:16;;;;;;;45.30;20.80;;;;;;;16.49;31.23;100095.35;108014;1257;73908;-65
2023/02/17 05:53:44;;;;;;;42.30;20.40;;;;;;;16.54;31.19;100100.34;107971;1258;61083;-66
2023/02/17 05:56:12;;;;;;;50.00;21.90;;;;;;;16.86;30.90;100098.34;107929;1257;61025;-65
2023/02/17 05:58:46;;;;;;;41.00;18.50;;;;;;;17.04;30.75;100103.62;107790;1257;73228;-67
2023/02/17 06:01:14;;;;;;;41.30;18.50;;;;;;;16.81;30.98;100101.34;107983;1260;69559;-66
2023/02/17 06:03:42;;;;;;;38.60;17.60;;;;;;;17.06;30.67;100101.35;107897;1257;73672;-67
2023/02/17 06:06:10;;;;;;;41.10;16.50;;;;;;;17.11;30.57;100101.02;107913;1256;62381;-67
2023/02/17 06:08:39;;;;;;;36.80;18.40;;;;;;;17.21;30.58;100106.43;107827;1257;61407;-67
2023/02/17 06:11:10;;;;;;;37.40;17.30;;;;;;;17.42;30.28;100114.62;107945;1256;73506;-67
2023/02/17 06:13:39;;;;;;;42.80;17.70;;;;;;;17.50;30.15;100120.46;107970;1257;70815;-66
2023/02/17 06:16:07;;;;;;;40.30;17.60;;;;;;;17.48;30.21;100115.98;108011;1257;73886;-66
2023/02/17 06:18:38;;;;;;;36.90;15.10;;;;;;;17.34;30.32;100120.65;107984;1256;62157;-66
2023/02/17 06:21:06;;;;;;;39.10;18.30;;;;;;;17.22;30.41;100120.14;107869;1261;61431;-66
2023/02/17 06:23:35;;;;;;;56.20;25.40;;;;;;;16.91;30.59;100129.21;107886;1257;74024;-67
2023/02/17 06:26:04;;;;;;;49.90;26.20;;;;;;;16.66;30.82;100132.37;107970;1260;70718;-66
2023/02/17 06:28:33;;;;;;;37.90;16.90;;;;;;;16.71;30.84;100136.87;108010;1257;73909;-66
2023/02/17 06:31:02;;;;;;;45.70;20.40;;;;;;;16.91;30.61;100136.13;107994;1257;62199;-64
2023/02/17 06:33:30;;;;;;;52.90;25.70;;;;;;;17.03;30.52;100138.22;107994;1257;61066;-66
2023/02/17 06:35:58;;;;;;;102.10;46.20;;;;;;;16.93;30.51;100138.73;108009;1257;72054;-65
2023/02/17 06:38:28;;;;;;;67.70;30.00;;;;;;;17.16;30.38;100137.23;108033;1257;71288;-66
2023/02/17 06:40:56;;;;;;;50.00;23.20;;;;;;;17.30;30.23;100141.09;107919;1257;73744;-66
2023/02/17 06:43:25;;;;;;;53.90;24.50;;;;;;;17.50;29.95;100138.92;107971;1257;62423;-66
2023/02/17 06:45:53;;;;;;;66.00;26.40;;;;;;;17.27;30.17;100142.20;107957;1258;61267;-68
2023/02/17 06:48:21;;;;;;;74.40;26.90;;;;;;;17.13;30.48;100145.80;107966;1260;73990;-66
2023/02/17 06:50:50;;;;;;;53.10;25.30;;;;;;;17.13;30.49;100149.33;107842;1257;71046;-66
2023/02/17 06:53:20;;;;;;;197.30;61.20;;;;;;;17.06;30.53;100152.58;107966;1257;73598;-65
2023/02/17 06:55:48;;;;;;;153.20;44.20;;;;;;;17.25;30.38;100153.48;108001;1257;62974;-66
2023/02/17 06:58:17;;;;;;;50.90;21.60;;;;;;;17.51;30.04;100151.80;107978;1257;62252;-65
2023/02/17 07:00:47;;;;;;;81.80;30.10;;;;;;;17.63;29.84;100153.52;107878;1257;74190;-66
2023/02/17 07:03:15;;;;;;;52.00;21.90;;;;;;;17.45;29.99;100158.59;107932;1257;71263;-66
2023/02/17 07:05:43;;;;;;;51.00;20.80;;;;;;;17.25;30.11;100154.23;107982;1256;73733;-65
2023/02/17 07:08:11;;;;;;;47.60;20.80;;;;;;;17.28;30.23;100158.30;107946;1257;60444;-67
2023/02/17 07:10:40;;;;;;;74.00;30.60;;;;;;;17.26;30.19;100159.86;107904;1255;61178;-67
2023/02/17 07:13:08;;;;;;;425.90;130.80;;;;;;;17.30;30.19;100164.34;107882;1257;73452;-67
2023/02/17 07:15:36;;;;;;;155.60;40.50;;;;;;;17.40;30.03;100165.67;107909;1257;71374;-67
2023/02/17 07:18:04;;;;;;;72.80;22.80;;;;;;;17.34;30.16;100169.46;107896;1257;73853;-67
2023/02/17 07:20:33;;;;;;;57.30;22.30;;;;;;;17.36;30.19;100171.98;107960;1257;62780;-67
2023/02/17 07:23:01;;;;;;;43.20;19.80;;;;;;;17.19;30.19;100173.39;107988;1257;60444;-68
2023/02/17 07:25:30;;;;;;;37.80;16.30;;;;;;;17.22;30.29;100174.62;107892;1257;75088;-67
2023/02/17 07:27:59;;;;;;;37.20;16.30;;;;;;;17.27;30.23;100175.40;107917;1257;69917;-66
2023/02/17 07:30:31;;;;;;;33.00;15.90;;;;;;;17.42;29.91;100175.30;107868;1257;73872;-67
2023/02/17 07:32:59;;;;;;;45.00;18.50;;;;;;;17.97;29.28;100173.33;107935;1256;62419;-66
2023/02/17 07:35:27;;;;;;;47.30;20.30;;;;;;;18.04;29.19;100171.04;108059;1256;60293;-66
2023/02/17 07:37:57;;;;;;;113.40;48.10;;;;;;;17.61;29.78;100173.69;108001;1257;74008;-67
2023/02/17 07:40:26;;;;;;;189.40;50.90;;;;;;;18.06;29.21;100174.48;108012;1257;69543;-67
2023/02/17 07:42:56;;;;;;;55.90;23.10;;;;;;;18.14;29.09;100174.11;108084;1256;71266;-65
2023/02/17 07:45:24;;;;;;;69.50;24.90;;;;;;;18.22;28.85;100178.21;108050;1257;61167;-67
2023/02/17 07:47:53;;;;;;;46.60;20.30;;;;;;;18.14;28.88;100177.85;107931;1257;61434;-66
2023/02/17 07:50:21;;;;;;;43.00;19.30;;;;;;;18.19;28.87;100175.59;108039;1257;73625;-67
2023/02/17 07:52:49;;;;;;;41.70;18.50;;;;;;;18.34;28.81;100175.45;107917;1255;71534;-67
2023/02/17 07:55:18;;;;;;;37.30;18.20;;;;;;;17.98;29.10;100179.14;108035;1257;73577;-67
2023/02/17 07:57:46;;;;;;;45.60;18.70;;;;;;;17.58;29.67;100183.50;107889;1256;60302;-66
2023/02/17 08:00:15;;;;;;;60.00;22.50;;;;;;;17.48;29.80;100185.20;107944;1257;60483;-67
2023/02/17 08:02:47;;;;;;;43.90;19.50;;;;;;;17.84;29.40;100184.08;107953;1257;72792;-67
2023/02/17 08:05:17;;;;;;;56.50;24.30;;;;;;;17.91;29.10;100182.38;107909;1257;71553;-66
2023/02/17 08:07:46;;;;;;;124.10;44.00;;;;;;;18.04;28.91;100182.05;108038;1257;74204;-66
2023/02/17 08:13:19;;;;;;;41.20;20.60;;;;;;;18.63;28.16;100183.73;107966;1256;61414;-66
2023/02/17 08:15:49;;;;;;;41.00;18.60;;;;;;;18.58;28.24;100188.38;108052;1254;72951;-67
2023/02/17 08:18:17;;;;;;;34.80;17.70;;;;;;;18.13;28.49;100186.44;108022;1254;71678;-66
2023/02/17 08:20:45;;;;;;;37.00;16.80;;;;;;;17.89;28.85;100189.33;108022;1254;73062;-66
2023/02/17 08:23:14;;;;;;;36.40;18.80;;;;;;;18.06;28.78;100195.08;108041;1254;62196;-65
2023/02/17 08:25:42;;;;;;;36.90;18.20;;;;;;;18.52;28.23;100195.02;108091;1254;61287;-67
2023/02/17 08:28:11;;;;;;;42.10;20.10;;;;;;;18.44;28.38;100197.89;108125;1254;75025;-67
2023/02/17 08:30:39;;;;;;;45.00;20.60;;;;;;;18.73;28.08;100198.36;108071;1254;71583;-68
2023/02/17 08:33:07;;;;;;;40.00;19.50;;;;;;;19.04;27.65;100196.33;108030;1254;73919;-66
2023/02/17 08:35:35;;;;;;;49.70;21.00;;;;;;;18.54;28.26;100205.31;108014;1254;61256;-67
2023/02/17 08:38:04;;;;;;;34.00;16.90;;;;;;;18.91;27.85;100199.98;108026;1254;61187;-64
2023/02/17 08:40:32;;;;;;;35.50;17.60;;;;;;;19.23;27.38;100204.79;108062;1254;74803;-66
2023/02/17 08:43:01;;;;;;;45.50;19.80;;;;;;;19.35;27.15;100204.98;108038;1254;71256;-66
2023/02/17 08:45:40;;;;;;;38.60;18.80;;;;;;;19.13;27.35;100211.52;108091;1254;71825;-65
2023/02/17 08:48:08;;;;;;;42.10;19.60;;;;;;;19.12;27.44;100215.71;107932;1254;61975;-67
2023/02/17 08:50:37;;;;;;;47.30;19.40;;;;;;;19.19;27.37;100221.83;108064;1254;61336;-67
2023/02/17 08:53:05;;;;;;;41.70;19.90;;;;;;;19.42;27.26;100223.20;108038;1254;74801;-65
2023/02/17 08:55:34;;;;;;;44.40;20.50;;;;;;;19.46;27.16;100223.04;108054;1254;72081;-66
2023/02/17 08:58:17;;;;;;;42.70;19.30;;;;;;;19.20;27.37;100226.89;108076;1253;73907;-65
2023/02/17 09:00:45;;;;;;;38.20;18.70;;;;;;;19.52;26.99;100228.30;108126;1254;60920;-66
2023/02/17 09:03:16;;;;;;;111.20;45.80;;;;;;;19.67;26.76;100228.70;108120;1253;60338;-66
2023/02/17 09:05:48;;;;;;;52.70;24.00;;;;;;;19.64;26.72;100232.11;108100;1254;74704;-67
2023/02/17 09:08:18;;;;;;;33.40;17.50;;;;;;;19.29;27.07;100232.10;108132;1254;71204;-68
2023/02/17 09:10:46;;;;;;;36.50;16.80;;;;;;;19.36;27.04;100233.38;108136;1254;72885;-66
2023/02/17 09:13:16;;;;;;;35.10;17.90;;;;;;;19.48;26.92;100230.93;108091;1254;62055;-68
2023/02/17 09:15:45;;;;;;;42.30;18.20;;;;;;;19.61;26.81;100229.68;108172;1257;61080;-65
2023/02/17 09:18:21;;;;;;;48.00;20.40;;;;;;;19.67;26.76;100232.77;108174;1254;74976;-66
2023/02/17 09:20:49;;;;;;;37.60;18.20;;;;;;;19.71;26.70;100233.41;108117;1253;70591;-64
2023/02/17 09:23:17;;;;;;;38.80;17.80;;;;;;;19.81;26.57;100237.77;108171;1257;72547;-66
2023/02/17 09:25:45;;;;;;;31.80;15.10;;;;;;;20.02;26.34;100236.23;108088;1253;60493;-66
2023/02/17 09:28:14;;;;;;;28.60;14.70;;;;;;;19.51;26.81;100236.05;108185;1254;60635;-66
2023/02/17 09:30:43;;;;;;;27.60;14.80;;;;;;;19.59;26.88;100244.42;108295;1253;74828;-66
2023/02/17 09:33:12;;;;;;;30.00;16.10;;;;;;;19.65;26.77;100242.55;108321;1254;71527;-66
2023/02/17 09:35:40;;;;;;;41.40;20.30;;;;;;;19.52;26.86;100242.00;108195;1253;71775;-67
2023/02/17 09:38:09;;;;;;;40.40;17.40;;;;;;;19.54;26.78;100238.55;108182;1254;62035;-67
2023/02/17 09:40:42;;;;;;;35.80;16.80;;;;;;;19.32;26.86;100235.80;108331;1253;61343;-67
2023/02/17 09:43:13;;;;;;;26.30;14.40;;;;;;;19.38;26.93;100237.20;108191;1255;74688;-66
2023/02/17 09:45:41;;;;;;;;;;;;;;;18.97;27.30;100237.96;108119;1254;70535;-65
2023/02/17 09:48:11;;;;;;;37.60;16.40;;;;;;;19.31;27.00;100231.63;108297;1253;73951;-66
2023/02/17 09:50:55;;;;;;;32.00;15.80;;;;;;;19.42;26.97;100232.09;108219;1253;62002;-66
2023/02/17 09:53:30;;;;;;;27.40;16.00;;;;;;;19.58;26.87;100232.05;108178;1252;61537;-67
2023/02/17 09:56:00;;;;;;;33.00;17.20;;;;;;;19.67;26.65;100230.96;108197;1254;75108;-65
2023/02/17 09:58:35;;;;;;;36.50;15.50;;;;;;;19.70;26.58;100231.85;108139;1254;71587;-66
2023/02/17 10:01:10;;;;;;;35.90;17.20;;;;;;;19.72;26.62;100234.41;108115;1253;73881;-67
2023/02/17 10:03:45;;;;;;;28.70;15.90;;;;;;;19.41;26.69;100237.67;108178;1253;61179;-66
2023/02/17 10:06:17;;;;;;;28.10;15.30;;;;;;;19.45;26.73;100234.71;108181;1253;60529;-65
2023/02/17 10:09:08;;;;;;;34.70;19.80;;;;;;;19.26;26.95;100233.72;108151;1253;75406;-65
2023/02/17 10:11:44;;;;;;;28.20;15.40;;;;;;;18.65;27.66;100236.41;108200;1254;69962;-66
2023/02/17 10:14:18;;;;;;;36.60;17.00;;;;;;;19.17;27.24;100234.00;108181;1254;73039;-67
2023/02/17 10:17:15;;;;;;;33.10;16.10;;;;;;;18.88;27.43;100239.09;108182;1253;60538;-67
2023/02/17 10:19:48;;;;;;;27.10;13.80;;;;;;;18.92;27.41;100234.77;107949;1256;61397;-66
2023/02/17 10:22:19;;;;;;;31.40;14.20;;;;;;;19.03;27.08;100227.89;108235;1256;74721;-67
2023/02/17 10:24:47;;;;;;;31.10;15.90;;;;;;;19.08;26.91;100230.96;108240;1252;71277;-66
2023/02/17 10:27:34;;;;;;;31.30;14.70;;;;;;;19.34;26.70;100231.92;108195;1254;72265;-65
2023/02/17 10:30:22;;;;;;;35.90;16.30;;;;;;;18.75;27.24;100228.09;108113;1253;61366;-66
2023/02/17 10:33:01;;;;;;;32.40;15.90;;;;;;;19.08;26.98;100226.17;108140;1253;61351;-67
2023/02/17 10:35:49;;;;;;;28.10;13.10;;;;;;;19.17;26.89;100226.38;108083;1253;73573;-67
2023/02/17 10:38:27;;;;;;;35.90;16.40;;;;;;;19.01;27.18;100224.70;108154;1253;70766;-67
2023/02/17 10:40:56;;;;;;;41.10;19.30;;;;;;;18.72;27.37;100230.93;108139;1257;73839;-67
2023/02/17 10:43:26;;;;;;;39.40;18.20;;;;;;;18.45;27.58;100231.23;108091;1254;62279;-66
2023/02/17 10:45:54;;;;;;;32.80;18.80;;;;;;;18.68;27.51;100228.55;108122;1254;61644;-66
2023/02/17 10:48:25;;;;;;;34.50;18.00;;;;;;;18.94;27.23;100226.77;107952;1253;74790;-67
2023/02/17 10:50:56;;;;;;;34.10;17.00;;;;;;;19.12;26.85;100225.51;108100;1253;69178;-67
2023/02/17 10:53:27;;;;;;;32.20;17.40;;;;;;;18.91;26.99;100233.92;108038;1253;72629;-68
2023/02/17 10:56:13;;;;;;;33.20;17.10;;;;;;;18.74;27.24;100237.38;108049;1254;61883;-66
2023/02/17 10:58:44;;;;;;;36.60;19.00;;;;;;;18.91;27.22;100240.70;108043;1254;61189;-65
2023/02/17 11:01:13;;;;;;;43.10;21.20;;;;;;;18.78;27.24;100239.99;108093;1254;75089;-66
2023/02/17 11:03:41;;;;;;;59.80;22.40;;;;;;;18.73;27.40;100236.98;108104;1253;70616;-67
2023/02/17 11:06:21;;;;;;;42.40;20.30;;;;;;;18.66;27.37;100238.81;107905;1254;75017;-67
2023/02/17 11:08:52;;;;;;;38.90;18.40;;;;;;;18.38;27.61;100237.00;108034;1253;60810;-67
2023/02/17 11:11:24;;;;;;;43.90;19.80;;;;;;;17.75;28.43;100237.95;108113;1253;60331;-67
2023/02/17 11:14:03;;;;;;;33.90;18.30;;;;;;;17.74;28.44;100243.58;108131;1253;75009;-67
2023/02/17 11:16:40;;;;;;;32.10;17.80;;;;;;;17.97;28.07;100240.49;108107;1254;71569;-67
2023/02/17 11:19:29;;;;;;;42.50;19.70;;;;;;;18.00;28.18;100234.39;108122;1253;72673;-67
2023/02/17 11:21:58;;;;;;;48.90;20.60;;;;;;;18.03;28.24;100232.61;108136;1253;62121;-68
2023/02/17 11:24:27;;;;;;;38.20;18.30;;;;;;;18.70;27.63;100232.38;108221;1253;61025;-67
2023/02/17 11:27:03;;;;;;;36.40;18.40;;;;;;;18.73;27.51;100233.23;108075;1253;73141;-67